sensor_id;sensor_type;location;lat;lon;timestamp;P1;durP1;ratioP1;P2;durP2;ratioP2
21274;SDS011;36472;52.170;20.884;2022-09-03T00:00:13;5.80;;;2.95;;
21274;SDS011;36472;52.170;20.884;2022-09-03T00:03:03;4.15;;;2.28;;
21274;SDS011;36472;52.170;20.884;2022-09-03T00:05:42;4.63;;;2.58;;
21274;SDS011;36472;52.170;20.884;2022-09-03T00:08:18;5.53;;;2.90;;
21274;SDS011;36472;52.170;20.884;2022-09-03T00:10:58;3.58;;;2.50;;
21274;SDS011;36472;52.170;20.884;2022-09-03T00:13:40;5.65;;;2.88;;
21274;SDS011;36472;52.170;20.884;2022-09-03T00:16:15;4.63;;;3.10;;
21274;SDS011;36472;52.170;20.884;2022-09-03T00:18:48;5.22;;;2.50;;
21274;SDS011;36472;52.170;20.884;2022-09-03T00:21:28;5.32;;;2.42;;
21274;SDS011;36472;52.170;20.884;2022-09-03T00:24:07;3.15;;;2.03;;
21274;SDS011;36472;52.170;20.884;2022-09-03T00:26:41;4.30;;;2.50;;
21274;SDS011;36472;52.170;20.884;2022-09-03T00:29:15;4.97;;;3.15;;
21274;SDS011;36472;52.170;20.884;2022-09-03T00:31:49;3.25;;;2.50;;
21274;SDS011;36472;52.170;20.884;2022-09-03T00:34:25;6.00;;;3.03;;
21274;SDS011;36472;52.170;20.884;2022-09-03T00:37:02;4.88;;;2.83;;
21274;SDS011;36472;52.170;20.884;2022-09-03T00:39:32;4.75;;;3.00;;
21274;SDS011;36472;52.170;20.884;2022-09-03T00:42:04;4.38;;;3.10;;
21274;SDS011;36472;52.170;20.884;2022-09-03T00:44:54;3.40;;;2.65;;
21274;SDS011;36472;52.170;20.884;2022-09-03T00:47:44;4.50;;;2.65;;
21274;SDS011;36472;52.170;20.884;2022-09-03T00:50:31;4.00;;;2.70;;
21274;SDS011;36472;52.170;20.884;2022-09-03T00:53:16;5.63;;;2.97;;
21274;SDS011;36472;52.170;20.884;2022-09-03T00:56:00;4.80;;;3.20;;
21274;SDS011;36472;52.170;20.884;2022-09-03T00:58:54;4.63;;;2.65;;
21274;SDS011;36472;52.170;20.884;2022-09-03T01:01:39;4.55;;;2.78;;
21274;SDS011;36472;52.170;20.884;2022-09-03T01:04:24;4.75;;;2.28;;
21274;SDS011;36472;52.170;20.884;2022-09-03T01:07:08;5.05;;;3.05;;
21274;SDS011;36472;52.170;20.884;2022-09-03T01:09:52;4.35;;;2.72;;
21274;SDS011;36472;52.170;20.884;2022-09-03T01:12:37;3.05;;;2.20;;
21274;SDS011;36472;52.170;20.884;2022-09-03T01:15:19;4.13;;;2.72;;
21274;SDS011;36472;52.170;20.884;2022-09-03T01:18:03;5.03;;;3.42;;
21274;SDS011;36472;52.170;20.884;2022-09-03T01:20:50;4.22;;;2.70;;
21274;SDS011;36472;52.170;20.884;2022-09-03T01:23:47;4.57;;;2.78;;
21274;SDS011;36472;52.170;20.884;2022-09-03T01:27:04;5.30;;;2.72;;
21274;SDS011;36472;52.170;20.884;2022-09-03T01:29:55;6.13;;;3.15;;
21274;SDS011;36472;52.170;20.884;2022-09-03T01:32:34;3.92;;;2.83;;
21274;SDS011;36472;52.170;20.884;2022-09-03T01:35:14;7.03;;;3.15;;
21274;SDS011;36472;52.170;20.884;2022-09-03T01:37:57;5.25;;;2.85;;
21274;SDS011;36472;52.170;20.884;2022-09-03T01:40:45;5.53;;;2.88;;
21274;SDS011;36472;52.170;20.884;2022-09-03T01:43:49;5.72;;;3.05;;
21274;SDS011;36472;52.170;20.884;2022-09-03T01:46:35;5.50;;;3.28;;
21274;SDS011;36472;52.170;20.884;2022-09-03T01:49:10;5.75;;;3.00;;
21274;SDS011;36472;52.170;20.884;2022-09-03T01:51:53;6.45;;;2.83;;
21274;SDS011;36472;52.170;20.884;2022-09-03T01:54:39;6.43;;;3.67;;
21274;SDS011;36472;52.170;20.884;2022-09-03T01:57:44;5.35;;;3.10;;
21274;SDS011;36472;52.170;20.884;2022-09-03T02:00:22;3.97;;;2.95;;
21274;SDS011;36472;52.170;20.884;2022-09-03T02:02:55;6.15;;;3.30;;
21274;SDS011;36472;52.170;20.884;2022-09-03T02:05:32;7.22;;;3.33;;
21274;SDS011;36472;52.170;20.884;2022-09-03T02:08:02;7.00;;;3.60;;
21274;SDS011;36472;52.170;20.884;2022-09-03T02:10:37;6.93;;;3.75;;
21274;SDS011;36472;52.170;20.884;2022-09-03T02:13:10;5.95;;;3.65;;
21274;SDS011;36472;52.170;20.884;2022-09-03T02:15:45;7.43;;;3.88;;
21274;SDS011;36472;52.170;20.884;2022-09-03T02:18:20;7.88;;;3.50;;
21274;SDS011;36472;52.170;20.884;2022-09-03T02:20:53;5.55;;;3.67;;
21274;SDS011;36472;52.170;20.884;2022-09-03T02:23:24;8.18;;;3.88;;
21274;SDS011;36472;52.170;20.884;2022-09-03T02:25:56;5.63;;;3.38;;
21274;SDS011;36472;52.170;20.884;2022-09-03T02:28:28;5.47;;;3.67;;
21274;SDS011;36472;52.170;20.884;2022-09-03T02:30:59;5.60;;;3.10;;
21274;SDS011;36472;52.170;20.884;2022-09-03T02:33:30;6.75;;;3.55;;
21274;SDS011;36472;52.170;20.884;2022-09-03T02:36:03;7.22;;;3.40;;
21274;SDS011;36472;52.170;20.884;2022-09-03T02:38:36;6.82;;;3.53;;
21274;SDS011;36472;52.170;20.884;2022-09-03T02:41:08;5.63;;;3.67;;
21274;SDS011;36472;52.170;20.884;2022-09-03T02:43:40;5.70;;;3.50;;
21274;SDS011;36472;52.170;20.884;2022-09-03T02:46:16;6.40;;;3.17;;
21274;SDS011;36472;52.170;20.884;2022-09-03T02:48:54;7.22;;;4.15;;
21274;SDS011;36472;52.170;20.884;2022-09-03T02:51:23;5.97;;;3.60;;
21274;SDS011;36472;52.170;20.884;2022-09-03T02:53:52;5.22;;;2.95;;
21274;SDS011;36472;52.170;20.884;2022-09-03T02:56:21;6.47;;;3.42;;
21274;SDS011;36472;52.170;20.884;2022-09-03T02:58:53;5.32;;;3.67;;
21274;SDS011;36472;52.170;20.884;2022-09-03T03:01:23;5.47;;;3.60;;
21274;SDS011;36472;52.170;20.884;2022-09-03T03:03:52;5.75;;;3.70;;
21274;SDS011;36472;52.170;20.884;2022-09-03T03:06:22;6.03;;;4.05;;
21274;SDS011;36472;52.170;20.884;2022-09-03T03:08:51;5.10;;;3.05;;
21274;SDS011;36472;52.170;20.884;2022-09-03T03:11:23;5.75;;;3.75;;
21274;SDS011;36472;52.170;20.884;2022-09-03T03:13:53;5.30;;;3.13;;
21274;SDS011;36472;52.170;20.884;2022-09-03T03:16:21;5.05;;;3.00;;
21274;SDS011;36472;52.170;20.884;2022-09-03T03:18:50;6.18;;;3.58;;
21274;SDS011;36472;52.170;20.884;2022-09-03T03:21:19;5.22;;;3.13;;
21274;SDS011;36472;52.170;20.884;2022-09-03T03:23:49;5.60;;;3.00;;
21274;SDS011;36472;52.170;20.884;2022-09-03T03:26:19;5.43;;;3.00;;
21274;SDS011;36472;52.170;20.884;2022-09-03T03:28:49;6.70;;;3.40;;
21274;SDS011;36472;52.170;20.884;2022-09-03T03:31:23;5.00;;;3.20;;
21274;SDS011;36472;52.170;20.884;2022-09-03T03:33:53;5.47;;;3.25;;
21274;SDS011;36472;52.170;20.884;2022-09-03T03:36:24;5.78;;;3.30;;
21274;SDS011;36472;52.170;20.884;2022-09-03T03:38:57;4.70;;;3.50;;
21274;SDS011;36472;52.170;20.884;2022-09-03T03:41:28;5.03;;;2.90;;
21274;SDS011;36472;52.170;20.884;2022-09-03T03:43:59;5.07;;;3.17;;
21274;SDS011;36472;52.170;20.884;2022-09-03T03:46:31;6.93;;;3.30;;
21274;SDS011;36472;52.170;20.884;2022-09-03T03:49:01;6.22;;;3.13;;
21274;SDS011;36472;52.170;20.884;2022-09-03T03:51:32;5.10;;;3.30;;
21274;SDS011;36472;52.170;20.884;2022-09-03T03:54:03;3.97;;;2.85;;
21274;SDS011;36472;52.170;20.884;2022-09-03T03:56:32;5.50;;;3.33;;
21274;SDS011;36472;52.170;20.884;2022-09-03T03:59:02;4.07;;;3.08;;
21274;SDS011;36472;52.170;20.884;2022-09-03T04:01:31;4.85;;;3.15;;
21274;SDS011;36472;52.170;20.884;2022-09-03T04:04:00;5.85;;;3.03;;
21274;SDS011;36472;52.170;20.884;2022-09-03T04:06:29;4.05;;;2.70;;
21274;SDS011;36472;52.170;20.884;2022-09-03T04:08:57;6.25;;;3.17;;
21274;SDS011;36472;52.170;20.884;2022-09-03T04:11:28;6.07;;;3.38;;
21274;SDS011;36472;52.170;20.884;2022-09-03T04:13:56;5.07;;;2.83;;
21274;SDS011;36472;52.170;20.884;2022-09-03T04:16:25;5.32;;;2.67;;
21274;SDS011;36472;52.170;20.884;2022-09-03T04:18:55;4.75;;;2.50;;
21274;SDS011;36472;52.170;20.884;2022-09-03T04:21:25;4.20;;;2.85;;
21274;SDS011;36472;52.170;20.884;2022-09-03T04:23:56;6.40;;;2.70;;
21274;SDS011;36472;52.170;20.884;2022-09-03T04:26:28;4.13;;;2.80;;
21274;SDS011;36472;52.170;20.884;2022-09-03T04:29:01;6.53;;;2.78;;
21274;SDS011;36472;52.170;20.884;2022-09-03T04:31:33;4.30;;;2.55;;
21274;SDS011;36472;52.170;20.884;2022-09-03T04:34:03;4.40;;;2.72;;
21274;SDS011;36472;52.170;20.884;2022-09-03T04:36:32;4.97;;;2.95;;
21274;SDS011;36472;52.170;20.884;2022-09-03T04:39:03;3.88;;;2.78;;
21274;SDS011;36472;52.170;20.884;2022-09-03T04:41:33;4.88;;;3.08;;
21274;SDS011;36472;52.170;20.884;2022-09-03T04:44:02;5.32;;;3.20;;
21274;SDS011;36472;52.170;20.884;2022-09-03T04:46:31;3.90;;;3.05;;
21274;SDS011;36472;52.170;20.884;2022-09-03T04:49:00;6.35;;;3.42;;
21274;SDS011;36472;52.170;20.884;2022-09-03T04:51:29;4.85;;;2.92;;
21274;SDS011;36472;52.170;20.884;2022-09-03T04:53:59;6.57;;;3.05;;
21274;SDS011;36472;52.170;20.884;2022-09-03T04:56:29;5.53;;;2.90;;
21274;SDS011;36472;52.170;20.884;2022-09-03T04:59:02;6.20;;;3.20;;
21274;SDS011;36472;52.170;20.884;2022-09-03T05:01:34;5.15;;;3.05;;
21274;SDS011;36472;52.170;20.884;2022-09-03T05:04:06;7.03;;;2.70;;
21274;SDS011;36472;52.170;20.884;2022-09-03T05:06:36;5.93;;;2.97;;
21274;SDS011;36472;52.170;20.884;2022-09-03T05:09:04;5.03;;;3.10;;
21274;SDS011;36472;52.170;20.884;2022-09-03T05:11:35;7.30;;;3.67;;
21274;SDS011;36472;52.170;20.884;2022-09-03T05:14:03;7.22;;;3.78;;
21274;SDS011;36472;52.170;20.884;2022-09-03T05:16:32;5.22;;;3.70;;
21274;SDS011;36472;52.170;20.884;2022-09-03T05:19:01;6.70;;;3.22;;
21274;SDS011;36472;52.170;20.884;2022-09-03T05:21:31;11.00;;;3.92;;
21274;SDS011;36472;52.170;20.884;2022-09-03T05:24:02;9.00;;;3.95;;
21274;SDS011;36472;52.170;20.884;2022-09-03T05:26:35;6.82;;;4.03;;
21274;SDS011;36472;52.170;20.884;2022-09-03T05:29:06;7.00;;;3.78;;
21274;SDS011;36472;52.170;20.884;2022-09-03T05:31:35;8.32;;;3.63;;
21274;SDS011;36472;52.170;20.884;2022-09-03T05:34:06;7.22;;;3.35;;
21274;SDS011;36472;52.170;20.884;2022-09-03T05:36:42;3.53;;;3.10;;
21274;SDS011;36472;52.170;20.884;2022-09-03T05:39:14;5.05;;;3.72;;
21274;SDS011;36472;52.170;20.884;2022-09-03T05:41:44;5.72;;;3.08;;
21274;SDS011;36472;52.170;20.884;2022-09-03T05:44:16;5.60;;;3.47;;
21274;SDS011;36472;52.170;20.884;2022-09-03T05:46:47;4.80;;;3.47;;
21274;SDS011;36472;52.170;20.884;2022-09-03T05:49:17;4.55;;;3.22;;
21274;SDS011;36472;52.170;20.884;2022-09-03T05:51:45;4.75;;;3.20;;
21274;SDS011;36472;52.170;20.884;2022-09-03T05:54:15;6.03;;;4.63;;
21274;SDS011;36472;52.170;20.884;2022-09-03T05:56:45;5.20;;;4.50;;
21274;SDS011;36472;52.170;20.884;2022-09-03T05:59:14;6.10;;;3.70;;
21274;SDS011;36472;52.170;20.884;2022-09-03T06:01:43;7.60;;;4.03;;
21274;SDS011;36472;52.170;20.884;2022-09-03T06:04:19;4.13;;;3.08;;
21274;SDS011;36472;52.170;20.884;2022-09-03T06:06:48;4.35;;;2.38;;
21274;SDS011;36472;52.170;20.884;2022-09-03T06:09:17;8.73;;;2.55;;
21274;SDS011;36472;52.170;20.884;2022-09-03T06:11:51;3.42;;;2.38;;
21274;SDS011;36472;52.170;20.884;2022-09-03T06:14:23;3.97;;;2.05;;
21274;SDS011;36472;52.170;20.884;2022-09-03T06:16:52;3.33;;;2.35;;
21274;SDS011;36472;52.170;20.884;2022-09-03T06:19:22;5.13;;;2.30;;
21274;SDS011;36472;52.170;20.884;2022-09-03T06:21:51;3.97;;;2.13;;
21274;SDS011;36472;52.170;20.884;2022-09-03T06:24:20;5.60;;;2.03;;
21274;SDS011;36472;52.170;20.884;2022-09-03T06:26:55;5.07;;;2.10;;
21274;SDS011;36472;52.170;20.884;2022-09-03T06:29:24;2.60;;;1.85;;
21274;SDS011;36472;52.170;20.884;2022-09-03T06:31:53;6.10;;;1.95;;
21274;SDS011;36472;52.170;20.884;2022-09-03T06:34:23;4.82;;;2.33;;
21274;SDS011;36472;52.170;20.884;2022-09-03T06:36:52;5.40;;;2.30;;
21274;SDS011;36472;52.170;20.884;2022-09-03T06:39:21;3.08;;;2.00;;
21274;SDS011;36472;52.170;20.884;2022-09-03T06:41:51;5.13;;;2.72;;
21274;SDS011;36472;52.170;20.884;2022-09-03T06:44:29;5.15;;;2.05;;
21274;SDS011;36472;52.170;20.884;2022-09-03T06:46:57;5.85;;;2.10;;
21274;SDS011;36472;52.170;20.884;2022-09-03T06:49:27;2.95;;;1.90;;
21274;SDS011;36472;52.170;20.884;2022-09-03T06:51:57;5.10;;;2.33;;
21274;SDS011;36472;52.170;20.884;2022-09-03T06:54:26;4.28;;;2.45;;
21274;SDS011;36472;52.170;20.884;2022-09-03T06:56:55;5.60;;;2.50;;
21274;SDS011;36472;52.170;20.884;2022-09-03T06:59:25;4.50;;;2.53;;
21274;SDS011;36472;52.170;20.884;2022-09-03T07:01:55;2.45;;;2.15;;
21274;SDS011;36472;52.170;20.884;2022-09-03T07:04:26;3.00;;;2.10;;
21274;SDS011;36472;52.170;20.884;2022-09-03T07:06:55;2.88;;;2.05;;
21274;SDS011;36472;52.170;20.884;2022-09-03T07:09:23;3.38;;;2.10;;
21274;SDS011;36472;52.170;20.884;2022-09-03T07:11:53;3.05;;;2.13;;
21274;SDS011;36472;52.170;20.884;2022-09-03T07:14:22;6.47;;;2.35;;
21274;SDS011;36472;52.170;20.884;2022-09-03T07:16:52;5.75;;;2.40;;
21274;SDS011;36472;52.170;20.884;2022-09-03T07:19:22;3.13;;;1.85;;
21274;SDS011;36472;52.170;20.884;2022-09-03T07:21:51;4.05;;;1.73;;
21274;SDS011;36472;52.170;20.884;2022-09-03T07:24:20;3.33;;;1.70;;
21274;SDS011;36472;52.170;20.884;2022-09-03T07:26:49;3.33;;;1.70;;
21274;SDS011;36472;52.170;20.884;2022-09-03T07:29:17;3.65;;;1.58;;
21274;SDS011;36472;52.170;20.884;2022-09-03T07:31:47;3.95;;;1.60;;
21274;SDS011;36472;52.170;20.884;2022-09-03T07:34:20;4.47;;;1.90;;
21274;SDS011;36472;52.170;20.884;2022-09-03T07:36:53;2.70;;;1.73;;
21274;SDS011;36472;52.170;20.884;2022-09-03T07:39:22;4.55;;;2.10;;
21274;SDS011;36472;52.170;20.884;2022-09-03T07:41:51;1.90;;;1.27;;
21274;SDS011;36472;52.170;20.884;2022-09-03T07:44:20;6.13;;;1.67;;
21274;SDS011;36472;52.170;20.884;2022-09-03T07:46:50;2.78;;;1.38;;
21274;SDS011;36472;52.170;20.884;2022-09-03T07:49:20;3.28;;;1.40;;
21274;SDS011;36472;52.170;20.884;2022-09-03T07:51:49;6.38;;;1.80;;
21274;SDS011;36472;52.170;20.884;2022-09-03T07:54:20;3.30;;;1.70;;
21274;SDS011;36472;52.170;20.884;2022-09-03T07:56:51;2.25;;;1.42;;
21274;SDS011;36472;52.170;20.884;2022-09-03T07:59:22;3.20;;;1.40;;
21274;SDS011;36472;52.170;20.884;2022-09-03T08:01:51;3.67;;;1.50;;
21274;SDS011;36472;52.170;20.884;2022-09-03T08:04:21;3.13;;;1.58;;
21274;SDS011;36472;52.170;20.884;2022-09-03T08:06:50;3.45;;;1.30;;
21274;SDS011;36472;52.170;20.884;2022-09-03T08:09:21;1.45;;;1.13;;
21274;SDS011;36472;52.170;20.884;2022-09-03T08:11:50;2.05;;;1.10;;
21274;SDS011;36472;52.170;20.884;2022-09-03T08:14:19;1.40;;;1.27;;
21274;SDS011;36472;52.170;20.884;2022-09-03T08:16:48;2.70;;;1.20;;
21274;SDS011;36472;52.170;20.884;2022-09-03T08:19:17;1.73;;;1.30;;
21274;SDS011;36472;52.170;20.884;2022-09-03T08:21:47;1.90;;;1.13;;
21274;SDS011;36472;52.170;20.884;2022-09-03T08:24:16;4.40;;;1.52;;
21274;SDS011;36472;52.170;20.884;2022-09-03T08:26:47;2.25;;;1.00;;
21274;SDS011;36472;52.170;20.884;2022-09-03T08:29:18;2.22;;;1.50;;
21274;SDS011;36472;52.170;20.884;2022-09-03T08:31:48;2.78;;;1.52;;
21274;SDS011;36472;52.170;20.884;2022-09-03T08:34:17;2.20;;;1.40;;
21274;SDS011;36472;52.170;20.884;2022-09-03T08:36:48;2.30;;;1.27;;
21274;SDS011;36472;52.170;20.884;2022-09-03T08:39:19;2.63;;;1.30;;
21274;SDS011;36472;52.170;20.884;2022-09-03T08:41:53;1.50;;;1.20;;
21274;SDS011;36472;52.170;20.884;2022-09-03T08:44:46;1.90;;;1.27;;
21274;SDS011;36472;52.170;20.884;2022-09-03T08:47:22;1.90;;;1.23;;
21274;SDS011;36472;52.170;20.884;2022-09-03T08:50:00;2.08;;;1.20;;
21274;SDS011;36472;52.170;20.884;2022-09-03T08:52:41;2.22;;;1.25;;
21274;SDS011;36472;52.170;20.884;2022-09-03T08:55:17;2.70;;;1.08;;
21274;SDS011;36472;52.170;20.884;2022-09-03T08:57:54;2.80;;;1.10;;
21274;SDS011;36472;52.170;20.884;2022-09-03T09:00:34;1.33;;;0.90;;
21274;SDS011;36472;52.170;20.884;2022-09-03T09:03:28;1.88;;;0.77;;
21274;SDS011;36472;52.170;20.884;2022-09-03T09:06:11;1.45;;;0.95;;
21274;SDS011;36472;52.170;20.884;2022-09-03T09:08:52;1.90;;;1.25;;
21274;SDS011;36472;52.170;20.884;2022-09-03T09:11:39;1.48;;;1.10;;
21274;SDS011;36472;52.170;20.884;2022-09-03T09:14:23;1.33;;;1.00;;
21274;SDS011;36472;52.170;20.884;2022-09-03T09:17:06;3.47;;;1.20;;
21274;SDS011;36472;52.170;20.884;2022-09-03T09:20:01;2.30;;;0.90;;
21274;SDS011;36472;52.170;20.884;2022-09-03T09:22:42;2.85;;;1.20;;
21274;SDS011;36472;52.170;20.884;2022-09-03T09:25:18;1.40;;;1.17;;
21274;SDS011;36472;52.170;20.884;2022-09-03T09:27:53;1.95;;;1.02;;
21274;SDS011;36472;52.170;20.884;2022-09-03T09:30:27;1.63;;;1.10;;
21274;SDS011;36472;52.170;20.884;2022-09-03T09:32:58;1.50;;;1.20;;
21274;SDS011;36472;52.170;20.884;2022-09-03T09:35:27;3.28;;;1.52;;
21274;SDS011;36472;52.170;20.884;2022-09-03T09:37:56;1.58;;;1.00;;
21274;SDS011;36472;52.170;20.884;2022-09-03T09:40:29;2.00;;;1.10;;
21274;SDS011;36472;52.170;20.884;2022-09-03T09:43:07;3.55;;;1.30;;
21274;SDS011;36472;52.170;20.884;2022-09-03T09:45:42;3.47;;;1.30;;
21274;SDS011;36472;52.170;20.884;2022-09-03T09:48:18;2.17;;;1.30;;
21274;SDS011;36472;52.170;20.884;2022-09-03T09:51:03;1.67;;;1.05;;
21274;SDS011;36472;52.170;20.884;2022-09-03T09:53:34;2.58;;;1.10;;
21274;SDS011;36472;52.170;20.884;2022-09-03T09:56:04;0.95;;;0.82;;
21274;SDS011;36472;52.170;20.884;2022-09-03T09:58:35;1.27;;;1.02;;
21274;SDS011;36472;52.170;20.884;2022-09-03T10:01:04;2.10;;;1.20;;
21274;SDS011;36472;52.170;20.884;2022-09-03T10:03:40;2.75;;;1.20;;
21274;SDS011;36472;52.170;20.884;2022-09-03T10:06:18;4.90;;;1.38;;
21274;SDS011;36472;52.170;20.884;2022-09-03T10:09:09;3.42;;;1.08;;
21274;SDS011;36472;52.170;20.884;2022-09-03T10:11:43;1.90;;;1.10;;
21274;SDS011;36472;52.170;20.884;2022-09-03T10:14:19;3.85;;;1.45;;
21274;SDS011;36472;52.170;20.884;2022-09-03T10:16:54;1.95;;;1.27;;
21274;SDS011;36472;52.170;20.884;2022-09-03T10:19:36;3.00;;;1.25;;
21274;SDS011;36472;52.170;20.884;2022-09-03T10:22:37;1.48;;;1.17;;
21274;SDS011;36472;52.170;20.884;2022-09-03T10:25:24;2.60;;;1.30;;
21274;SDS011;36472;52.170;20.884;2022-09-03T10:28:03;1.33;;;1.05;;
21274;SDS011;36472;52.170;20.884;2022-09-03T10:30:44;4.35;;;1.35;;
21274;SDS011;36472;52.170;20.884;2022-09-03T10:33:28;1.70;;;1.20;;
21274;SDS011;36472;52.170;20.884;2022-09-03T10:36:07;2.88;;;1.42;;
21274;SDS011;36472;52.170;20.884;2022-09-03T10:38:46;2.67;;;1.30;;
21274;SDS011;36472;52.170;20.884;2022-09-03T10:41:29;3.40;;;1.30;;
21274;SDS011;36472;52.170;20.884;2022-09-03T10:44:18;2.17;;;1.27;;
21274;SDS011;36472;52.170;20.884;2022-09-03T10:47:10;1.52;;;1.10;;
21274;SDS011;36472;52.170;20.884;2022-09-03T10:49:56;1.90;;;1.20;;
21274;SDS011;36472;52.170;20.884;2022-09-03T10:52:53;2.78;;;1.20;;
21274;SDS011;36472;52.170;20.884;2022-09-03T10:55:37;2.38;;;1.05;;
21274;SDS011;36472;52.170;20.884;2022-09-03T10:58:25;3.15;;;2.80;;
21274;SDS011;36472;52.170;20.884;2022-09-03T11:01:23;1.45;;;1.05;;
21274;SDS011;36472;52.170;20.884;2022-09-03T11:04:11;1.55;;;1.10;;
21274;SDS011;36472;52.170;20.884;2022-09-03T11:07:03;1.98;;;0.90;;
21274;SDS011;36472;52.170;20.884;2022-09-03T11:09:36;1.73;;;0.95;;
21274;SDS011;36472;52.170;20.884;2022-09-03T11:12:11;4.35;;;1.40;;
21274;SDS011;36472;52.170;20.884;2022-09-03T11:14:49;3.33;;;1.08;;
21274;SDS011;36472;52.170;20.884;2022-09-03T11:17:27;2.13;;;0.90;;
21274;SDS011;36472;52.170;20.884;2022-09-03T11:20:04;2.15;;;0.80;;
21274;SDS011;36472;52.170;20.884;2022-09-03T11:22:43;1.30;;;0.85;;
21274;SDS011;36472;52.170;20.884;2022-09-03T11:25:15;1.20;;;0.82;;
21274;SDS011;36472;52.170;20.884;2022-09-03T11:27:53;4.57;;;1.50;;
21274;SDS011;36472;52.170;20.884;2022-09-03T11:30:39;3.40;;;0.95;;
21274;SDS011;36472;52.170;20.884;2022-09-03T11:33:30;1.17;;;0.80;;
21274;SDS011;36472;52.170;20.884;2022-09-03T11:36:04;1.30;;;0.85;;
21274;SDS011;36472;52.170;20.884;2022-09-03T11:38:33;1.98;;;0.98;;
21274;SDS011;36472;52.170;20.884;2022-09-03T11:41:10;1.33;;;0.90;;
21274;SDS011;36472;52.170;20.884;2022-09-03T11:43:42;1.70;;;0.98;;
21274;SDS011;36472;52.170;20.884;2022-09-03T11:46:12;1.10;;;1.00;;
21274;SDS011;36472;52.170;20.884;2022-09-03T11:49:07;2.70;;;1.02;;
21274;SDS011;36472;52.170;20.884;2022-09-03T11:51:39;4.32;;;1.10;;
21274;SDS011;36472;52.170;20.884;2022-09-03T11:54:23;3.25;;;1.10;;
21274;SDS011;36472;52.170;20.884;2022-09-03T11:57:03;2.17;;;1.05;;
21274;SDS011;36472;52.170;20.884;2022-09-03T11:59:40;2.13;;;1.20;;
21274;SDS011;36472;52.170;20.884;2022-09-03T12:02:23;1.80;;;1.00;;
21274;SDS011;36472;52.170;20.884;2022-09-03T12:05:03;1.45;;;0.90;;
21274;SDS011;36472;52.170;20.884;2022-09-03T12:10:57;2.05;;;0.80;;
21274;SDS011;36472;52.170;20.884;2022-09-03T12:13:46;2.90;;;0.98;;
21274;SDS011;36472;52.170;20.884;2022-09-03T12:16:35;3.05;;;0.70;;
21274;SDS011;36472;52.170;20.884;2022-09-03T12:19:44;5.30;;;1.15;;
21274;SDS011;36472;52.170;20.884;2022-09-03T12:22:21;1.75;;;0.98;;
21274;SDS011;36472;52.170;20.884;2022-09-03T12:24:53;2.38;;;1.10;;
21274;SDS011;36472;52.170;20.884;2022-09-03T12:27:24;1.40;;;1.10;;
21274;SDS011;36472;52.170;20.884;2022-09-03T12:29:54;1.77;;;1.00;;
21274;SDS011;36472;52.170;20.884;2022-09-03T12:32:26;1.65;;;1.00;;
21274;SDS011;36472;52.170;20.884;2022-09-03T12:35:09;3.20;;;1.17;;
21274;SDS011;36472;52.170;20.884;2022-09-03T12:38:01;2.17;;;1.15;;
21274;SDS011;36472;52.170;20.884;2022-09-03T12:40:33;2.38;;;1.50;;
21274;SDS011;36472;52.170;20.884;2022-09-03T12:43:26;1.70;;;0.93;;
21274;SDS011;36472;52.170;20.884;2022-09-03T12:46:12;0.85;;;0.70;;
21274;SDS011;36472;52.170;20.884;2022-09-03T12:48:46;1.52;;;0.98;;
21274;SDS011;36472;52.170;20.884;2022-09-03T12:51:41;3.08;;;0.93;;
21274;SDS011;36472;52.170;20.884;2022-09-03T12:54:20;1.20;;;0.70;;
21274;SDS011;36472;52.170;20.884;2022-09-03T12:56:51;1.70;;;0.82;;
21274;SDS011;36472;52.170;20.884;2022-09-03T12:59:24;1.83;;;0.63;;
21274;SDS011;36472;52.170;20.884;2022-09-03T13:02:01;3.00;;;0.88;;
21274;SDS011;36472;52.170;20.884;2022-09-03T13:04:41;1.92;;;1.15;;
21274;SDS011;36472;52.170;20.884;2022-09-03T13:07:13;3.60;;;0.98;;
21274;SDS011;36472;52.170;20.884;2022-09-03T13:10:02;2.60;;;0.98;;
21274;SDS011;36472;52.170;20.884;2022-09-03T13:12:45;7.93;;;1.33;;
21274;SDS011;36472;52.170;20.884;2022-09-03T13:15:20;1.20;;;0.80;;
21274;SDS011;36472;52.170;20.884;2022-09-03T13:17:56;1.25;;;0.73;;
21274;SDS011;36472;52.170;20.884;2022-09-03T13:21:04;2.75;;;0.90;;
21274;SDS011;36472;52.170;20.884;2022-09-03T13:26:44;2.22;;;0.90;;
21274;SDS011;36472;52.170;20.884;2022-09-03T13:29:31;1.95;;;1.00;;
21274;SDS011;36472;52.170;20.884;2022-09-03T13:32:13;1.63;;;0.90;;
21274;SDS011;36472;52.170;20.884;2022-09-03T13:34:56;2.13;;;0.93;;
21274;SDS011;36472;52.170;20.884;2022-09-03T13:37:34;1.83;;;0.93;;
21274;SDS011;36472;52.170;20.884;2022-09-03T13:40:12;3.42;;;1.27;;
21274;SDS011;36472;52.170;20.884;2022-09-03T13:42:52;3.97;;;0.95;;
21274;SDS011;36472;52.170;20.884;2022-09-03T13:45:30;1.90;;;0.85;;
21274;SDS011;36472;52.170;20.884;2022-09-03T13:48:07;1.77;;;0.90;;
21274;SDS011;36472;52.170;20.884;2022-09-03T13:51:08;2.50;;;1.08;;
21274;SDS011;36472;52.170;20.884;2022-09-03T13:53:45;2.13;;;1.00;;
21274;SDS011;36472;52.170;20.884;2022-09-03T13:56:31;1.92;;;1.05;;
21274;SDS011;36472;52.170;20.884;2022-09-03T13:59:26;2.78;;;1.05;;
21274;SDS011;36472;52.170;20.884;2022-09-03T14:02:10;1.40;;;0.90;;
21274;SDS011;36472;52.170;20.884;2022-09-03T14:04:53;3.35;;;1.05;;
21274;SDS011;36472;52.170;20.884;2022-09-03T14:07:52;1.58;;;1.10;;
21274;SDS011;36472;52.170;20.884;2022-09-03T14:10:38;1.83;;;1.00;;
21274;SDS011;36472;52.170;20.884;2022-09-03T14:13:38;2.30;;;1.02;;
21274;SDS011;36472;52.170;20.884;2022-09-03T14:16:27;1.42;;;1.05;;
21274;SDS011;36472;52.170;20.884;2022-09-03T14:19:07;1.50;;;1.00;;
21274;SDS011;36472;52.170;20.884;2022-09-03T14:21:49;2.05;;;1.00;;
21274;SDS011;36472;52.170;20.884;2022-09-03T14:24:25;1.40;;;1.00;;
21274;SDS011;36472;52.170;20.884;2022-09-03T14:27:05;2.75;;;1.05;;
21274;SDS011;36472;52.170;20.884;2022-09-03T14:29:35;1.67;;;1.05;;
21274;SDS011;36472;52.170;20.884;2022-09-03T14:32:17;1.80;;;0.93;;
21274;SDS011;36472;52.170;20.884;2022-09-03T14:34:59;2.40;;;0.77;;
21274;SDS011;36472;52.170;20.884;2022-09-03T14:38:16;1.65;;;0.90;;
21274;SDS011;36472;52.170;20.884;2022-09-03T14:41:40;1.20;;;0.90;;
21274;SDS011;36472;52.170;20.884;2022-09-03T14:48:02;2.05;;;0.95;;
21274;SDS011;36472;52.170;20.884;2022-09-03T14:50:56;1.63;;;1.08;;
21274;SDS011;36472;52.170;20.884;2022-09-03T14:54:00;1.73;;;0.90;;
21274;SDS011;36472;52.170;20.884;2022-09-03T14:57:01;3.08;;;1.17;;
21274;SDS011;36472;52.170;20.884;2022-09-03T14:59:52;1.38;;;0.77;;
21274;SDS011;36472;52.170;20.884;2022-09-03T15:02:43;1.88;;;0.80;;
21274;SDS011;36472;52.170;20.884;2022-09-03T15:05:41;1.58;;;1.08;;
21274;SDS011;36472;52.170;20.884;2022-09-03T15:08:39;2.63;;;1.13;;
21274;SDS011;36472;52.170;20.884;2022-09-03T15:11:23;2.42;;;0.98;;
21274;SDS011;36472;52.170;20.884;2022-09-03T15:13:59;1.67;;;1.00;;
21274;SDS011;36472;52.170;20.884;2022-09-03T15:16:42;1.77;;;0.88;;
21274;SDS011;36472;52.170;20.884;2022-09-03T15:19:47;3.00;;;1.20;;
21274;SDS011;36472;52.170;20.884;2022-09-03T15:22:45;0.77;;;0.70;;
21274;SDS011;36472;52.170;20.884;2022-09-03T15:25:53;1.98;;;0.90;;
21274;SDS011;36472;52.170;20.884;2022-09-03T15:28:49;2.75;;;0.80;;
21274;SDS011;36472;52.170;20.884;2022-09-03T15:31:49;2.72;;;1.10;;
21274;SDS011;36472;52.170;20.884;2022-09-03T15:34:34;2.53;;;1.13;;
21274;SDS011;36472;52.170;20.884;2022-09-03T15:37:22;2.05;;;0.85;;
21274;SDS011;36472;52.170;20.884;2022-09-03T15:39:58;3.53;;;1.10;;
21274;SDS011;36472;52.170;20.884;2022-09-03T15:42:34;1.73;;;0.80;;